• Join FlightAware (Why Join?)
  • Login
  • US Flag 
04:43PM EDT


 

Airport Tracker/Info


-or-


 

Live Flight TrackerFlight Track Log ✈ N55TD ✈ 27-Apr-2013 ✈ KSDL - KISM

Flight Track Log - Related Links

Times and Time Zones

All times are in EDT time to prevent confusion due to time zone crossing. See the N55TD flight status page for this flight to view local times or setup timezone preferences in your user account.

Time Position Orientation Groundspeed Altitude Reporting Facility
EDT Latitude Longitude Course Direction KTS MPH feet Rate Location/Type
11:23AM 33.6000 -111.9333 287° West 178 205 2,300  Level Phoenix TRACON
11:24AM 33.6167 -112.0000 287° West 237 273 4,100 1,980 Climbing Phoenix TRACON
11:25AM 33.6500 -112.0667 301° West 280 322 6,400 2,760 Climbing Phoenix TRACON
11:26AM 33.6333 -112.1667 259° West 288 331 9,700 2,520 Climbing Phoenix TRACON
11:26AM 33.5667 -112.1667 180° South 339 390 11,300 1,500 Climbing Phoenix TRACON
11:27AM 33.5519 -112.1400 124° Southeast 338 389 11,600 2,520 Climbing Albuquerque Center
11:28AM 33.4983 -112.0406 123° Southeast 357 411 14,800 2,820 Climbing Albuquerque Center
11:29AM 33.4561 -111.9244 114° Southeast 387 445 17,400 2,340 Climbing Albuquerque Center
11:30AM 33.4208 -111.8011 109° East 399 459 19,600 2,280 Climbing Albuquerque Center
11:31AM 33.3828 -111.6444 106° East 408 470 22,200 2,340 Climbing Albuquerque Center
11:32AM 33.3458 -111.5086 108° East 429 494 24,400 1,920 Climbing Albuquerque Center
11:33AM 33.3094 -111.3697 107° East 441 507 26,200 1,620 Climbing Albuquerque Center
11:34AM 33.2706 -111.2256 108° East 456 525 27,800 1,560 Climbing Albuquerque Center
11:35AM 33.2294 -111.0756 108° East 475 547 29,400 1,860 Climbing Albuquerque Center
11:36AM 33.1900 -110.9233 107° East 482 555 31,700 1,980 Climbing Albuquerque Center
11:37AM 33.1400 -110.7442 108° East 477 549 33,500 1,680 Climbing Albuquerque Center
11:38AM 33.0964 -110.5878 108° East 483 556 35,200 1,620 Climbing Albuquerque Center
11:39AM 33.0556 -110.4381 108° East 481 554 36,900 1,380 Climbing Albuquerque Center
11:40AM 33.0142 -110.2881 108° East 481 554 38,100 1,020 Climbing Albuquerque Center
11:41AM 32.9722 -110.1383 108° East 481 554 39,000 840 Climbing Albuquerque Center
11:42AM 32.9269 -109.9864 110° East 488 562 39,900 840 Climbing Albuquerque Center
11:43AM 32.8842 -109.8331 108° East 492 566 40,800 480 Climbing Albuquerque Center
11:44AM 32.8297 -109.6478 109° East 499 574 41,000 60 Climbing Albuquerque Center
11:45AM 32.7861 -109.4914 108° East 503 579 41,000  Level Albuquerque Center
11:46AM 32.7408 -109.3350 109° East 508 585 41,000  Level Albuquerque Center
11:47AM 32.6953 -109.1792 109° East 509 586 41,000  Level Albuquerque Center
11:48AM 32.6411 -108.9928 109° East 509 586 41,000  Level Albuquerque Center
11:49AM 32.5956 -108.8378 109° East 509 586 41,000  Level Albuquerque Center
11:50AM 32.5506 -108.6808 109° East 511 588 41,000  Level Albuquerque Center
11:51AM 32.5036 -108.5228 109° East 514 592 41,000  Level Albuquerque Center
11:52AM 32.4569 -108.3658 109° East 513 590 41,000  Level Albuquerque Center
11:53AM 32.4078 -108.2067 110° East 514 592 41,000  Level Albuquerque Center
11:54AM 32.3508 -108.0139 109° East 518 596 41,000  Level Albuquerque Center
11:56AM 32.3042 -107.8539 109° East 518 596 41,000  Level Albuquerque Center
11:57AM 32.2553 -107.6942 110° East 520 598 41,000  Level Albuquerque Center
11:58AM 32.2067 -107.5364 110° East 518 596 41,000  Level Albuquerque Center
11:59AM 32.1589 -107.3775 110° East 519 597 41,000  Level Albuquerque Center
12:00PM 32.1114 -107.2194 109° East 519 597 41,000  Level Albuquerque Center
12:01PM 32.0536 -107.0303 110° East 518 596 41,000  Level Albuquerque Center
12:02PM 32.0039 -106.8714 110° East 520 598 41,000  Level Albuquerque Center
12:03PM 31.9533 -106.7131 111° Southeast 521 600 41,000  Level Albuquerque Center
12:04PM 31.9014 -106.5497 110° East 523 602 41,000  Level Albuquerque Center
12:05PM 31.8508 -106.3864 110° East 529 609 41,000  Level Albuquerque Center
12:06PM 31.8172 -106.2189 103° East 527 606 41,000  Level Albuquerque Center
12:07PM 31.8178 -106.0461 90° East 528 608 41,000  Level Albuquerque Center
12:08PM 31.8203 -105.8744 89° East 526 605 41,000  Level Albuquerque Center
12:09PM 31.8211 -105.6686 90° East 524 603 41,000  Level Albuquerque Center
12:10PM 31.8233 -105.4956 89° East 526 605 41,000  Level Albuquerque Center
12:11PM 31.8247 -105.3236 89° East 525 604 41,000  Level Albuquerque Center
12:12PM 31.8272 -105.1525 89° East 522 601 41,000  Level Albuquerque Center
12:13PM 31.8267 -104.9800 90° East 525 604 41,000  Level Albuquerque Center
12:14PM 31.8278 -104.8075 90° East 526 605 41,000  Level Albuquerque Center
12:15PM 31.8286 -104.6336 90° East 529 609 41,000  Level Albuquerque Center
12:16PM 31.8286 -104.4600 90° East 530 610 41,000  Level Albuquerque Center
12:17PM 31.8281 -104.2875 90° East 528 608 41,000  Level Albuquerque Center
12:18PM 31.8289 -104.1150 90° East 527 606 41,000  Level Albuquerque Center
12:19PM 31.8281 -103.9086 90° East 526 605 41,000  Level Albuquerque Center
12:20PM 31.8264 -103.7375 91° East 529 609 41,000  Level Albuquerque Center
12:21PM 31.8239 -103.5678 91° East 523 602 41,000  Level Albuquerque Center
12:22PM 31.8222 -103.4033 91° East 524 603 41,000  Level Albuquerque Center
12:23PM 31.8208 -103.1969 90° East 526 605 41,000  Level Albuquerque Center
12:24PM 31.8186 -103.0239 91° East 527 606 41,000  Level Albuquerque Center
12:25PM 31.8167 -102.8514 91° East 526 605 41,000  Level Albuquerque Center
12:26PM 31.8131 -102.6789 91° East 525 604 41,000  Level Albuquerque Center
12:27PM 31.8139 -102.6008 89° East 521 600 41,000  Level Fort Worth Center
12:28PM 31.8106 -102.4269 91° East 521 600 41,000  Level Fort Worth Center
12:29PM 31.8089 -102.2558 91° East 521 600 41,000  Level Fort Worth Center
12:30PM 31.8069 -102.0847 91° East 521 600 41,000  Level Fort Worth Center
12:31PM 31.8050 -101.9111 91° East 521 600 41,000  Level Fort Worth Center
12:32PM 31.8006 -101.7444 92° East 515 593 41,000  Level Fort Worth Center
12:33PM 31.7958 -101.5683 92° East 521 600 41,000  Level Fort Worth Center
12:34PM 31.7889 -101.3969 93° East 521 600 41,000  Level Fort Worth Center
12:35PM 31.7858 -101.2283 91° East 516 594 41,000  Level Fort Worth Center
12:36PM 31.7825 -101.0594 91° East 516 594 41,000  Level Fort Worth Center
12:37PM 31.7769 -100.8883 92° East 516 594 41,000  Level Fort Worth Center
12:38PM 31.7689 -100.7169 93° East 516 594 41,000  Level Fort Worth Center
12:39PM 31.7628 -100.5556 93° East 515 593 41,000  Level Fort Worth Center
12:40PM 31.7547 -100.3647 93° East 520 598 41,000  Level Fort Worth Center
12:41PM 31.7503 -100.1936 92° East 527 606 41,000  Level Fort Worth Center
12:42PM 31.7436 -100.0222 93° East 527 606 41,000  Level Fort Worth Center
12:43PM 31.7367 -99.8511 93° East 521 600 41,000  Level Fort Worth Center
12:44PM 31.7314 -99.6800 92° East 521 600 41,000  Level Fort Worth Center
12:45PM 31.7261 -99.5139 92° East 521 600 41,000  Level Fort Worth Center
12:46PM 31.7183 -99.3428 93° East 521 600 41,000 120 Level Fort Worth Center
12:47PM 31.7125 -99.1742 92° East 521 600 41,300 1,020 Climbing Fort Worth Center
12:48PM 31.7042 -99.0056 93° East 521 600 43,100 1,200 Climbing Fort Worth Center
12:49PM 31.6978 -98.8392 93° East 515 593 43,800 600 Climbing Fort Worth Center
12:50PM 31.6911 -98.6831 93° East 498 573 44,300 480 Climbing Fort Worth Center
12:51PM 31.6844 -98.5217 93° East 492 566 44,800 300 Climbing Fort Worth Center
12:52PM 31.6753 -98.3581 94° East 499 574 45,000 60 Climbing Fort Worth Center
12:53PM 31.6681 -98.2067 93° East 499 574 45,000  Level Fort Worth Center
12:54PM 31.6606 -98.0406 93° East 504 580 45,000  Level Fort Worth Center
12:55PM 31.6531 -97.8747 93° East 509 586 45,000  Level Fort Worth Center
12:56PM 31.6450 -97.7061 93° East 509 586 45,000  Level Fort Worth Center
12:57PM 31.6369 -97.5428 93° East 515 593 45,000  Level Fort Worth Center
12:58PM 31.6244 -97.3597 95° East 515 593 45,000  Level Fort Worth Center
12:59PM 31.6161 -97.1939 93° East 515 593 45,000  Level Fort Worth Center
01:00PM 31.6053 -97.0256 94° East 520 598 45,000  Level Fort Worth Center
01:01PM 31.5961 -96.8597 94° East 514 592 45,000  Level Fort Worth Center
01:02PM 31.5892 -96.6914 93° East 514 592 45,000  Level Fort Worth Center
01:03PM 31.5775 -96.5233 95° East 514 592 45,000  Level Fort Worth Center
01:04PM 31.5681 -96.3575 94° East 514 592 45,000  Level Fort Worth Center
01:05PM 31.5564 -96.2114 95° East 514 592 45,000  Level Fort Worth Center
01:06PM 31.5442 -96.0458 95° East 509 586 45,000  Level Fort Worth Center
01:07PM 31.5339 -95.8803 94° East 509 586 45,000  Level Fort Worth Center
01:08PM 31.5233 -95.7172 94° East 509 586 45,000  Level Fort Worth Center
01:09PM 31.5108 -95.5542 95° East 504 580 45,000  Level Fort Worth Center
01:10PM 31.4994 -95.3742 94° East 504 580 45,000  Level Fort Worth Center
01:11PM 31.4864 -95.2136 95° East 497 572 45,000  Level Fort Worth Center
01:12PM 31.4753 -95.0506 95° East 497 572 45,000  Level Fort Worth Center
01:13PM 31.4636 -94.8853 95° East 502 578 45,000  Level Fort Worth Center
01:13PM 31.4569 -94.8186 97° East 509 586 45,000  Level Houston Center
01:14PM 31.4436 -94.6467 95° East 517 595 45,000  Level Houston Center
01:15PM 31.4375 -94.5453 94° East 515 593 45,000  Level Fort Worth Center
01:16PM 31.4125 -94.2744 96° East 517 595 45,000  Level Houston Center
01:17PM 31.3994 -94.1061 95° East 519 597 45,000  Level Houston Center
01:18PM 31.3850 -93.9386 96° East 517 595 45,000  Level Houston Center
01:20PM 31.3714 -93.7722 95° East 515 593 45,000  Level Houston Center
01:21PM 31.3572 -93.6056 96° East 516 594 45,000  Level Houston Center
01:22PM 31.3425 -93.4300 96° East 517 595 45,000  Level Houston Center
01:23PM 31.3261 -93.2481 96° East 515 593 45,000  Level Houston Center
01:24PM 31.3114 -93.0831 96° East 512 589 45,000  Level Houston Center
01:25PM 31.2964 -92.9183 96° East 509 586 45,000  Level Houston Center
01:26PM 31.2808 -92.7531 96° East 511 588 45,000  Level Houston Center
01:27PM 31.2656 -92.5872 96° East 512 589 45,000  Level Houston Center
01:28PM 31.2575 -92.4231 93° East 510 587 45,000  Level Houston Center
01:29PM 31.2650 -92.2589 87° East 507 583 45,000  Level Houston Center
01:30PM 31.2678 -92.0936 89° East 509 586 45,000  Level Houston Center
01:31PM 31.2731 -91.8969 88° East 512 589 45,000  Level Houston Center
01:32PM 31.2783 -91.7331 88° East 507 583 45,000  Level Houston Center
01:33PM 31.2817 -91.5672 89° East 511 588 45,000  Level Houston Center
01:34PM 31.2856 -91.4022 88° East 511 588 45,000  Level Houston Center
01:35PM 31.2886 -91.2361 89° East 511 588 45,000  Level Houston Center
01:36PM 31.2917 -91.0564 89° East 510 587 45,000  Level Houston Center
01:37PM 31.2947 -90.8911 89° East 510 587 45,000  Level Houston Center
01:38PM 31.2972 -90.7258 89° East 509 586 45,000  Level Houston Center
01:39PM 31.3000 -90.5600 89° East 509 586 45,000  Level Houston Center
01:40PM 31.3025 -90.3606 89° East 512 589 45,000  Level Houston Center
01:41PM 31.2981 -90.1936 92° East 512 589 45,000  Level Houston Center
01:42PM 31.2769 -90.0289 98° East 512 589 45,000  Level Houston Center
01:43PM 31.2567 -89.8628 98° East 514 592 45,000  Level Houston Center
01:44PM 31.2356 -89.6978 98° East 513 590 45,000  Level Houston Center
01:45PM 31.2161 -89.5325 98° East 511 588 45,000  Level Houston Center
01:46PM 31.1944 -89.3692 99° East 509 586 45,000  Level Houston Center
01:47PM 31.1742 -89.2047 98° East 511 588 45,000  Level Houston Center
01:48PM 31.1478 -89.0067 99° East 513 590 45,000  Level Houston Center
01:49PM 31.1269 -88.8536 99° East 508 585 45,000  Level Houston Center
01:50PM 31.1058 -88.6900 99° East 509 586 45,000  Level Houston Center
01:51PM 31.0839 -88.5183 98° East 508 585 45,000  Level Houston Center
01:52PM 31.0619 -88.3547 99° East 510 587 45,000  Level Houston Center
01:54PM 31.0389 -88.1911 99° East 512 589 45,000  Level Houston Center
01:55PM 31.0175 -88.0278 99° East 511 588 45,000  Level Houston Center
01:56PM 30.9903 -87.8325 99° East 511 588 45,000  Level Houston Center
01:57PM 30.9681 -87.6642 99° East 509 586 45,000  Level Houston Center
01:57PM 30.9567 -87.5869 100° East 507 583 45,000  Level Jacksonville Center
01:58PM 30.9353 -87.4261 99° East 507 583 45,000  Level Jacksonville Center
01:59PM 30.9264 -87.2611 94° East 507 583 45,000  Level Jacksonville Center
02:00PM 30.9236 -87.0964 91° East 507 583 45,000  Level Jacksonville Center
02:01PM 30.9206 -86.9339 91° East 502 578 45,000  Level Jacksonville Center
02:02PM 30.9172 -86.7717 91° East 497 572 45,000  Level Jacksonville Center
02:03PM 30.9100 -86.5969 93° East 497 572 45,000  Level Jacksonville Center
02:04PM 30.9064 -86.4322 91° East 503 579 45,000  Level Jacksonville Center
02:05PM 30.9025 -86.2650 92° East 503 579 45,000  Level Jacksonville Center
02:06PM 30.8961 -86.1028 93° East 503 579 45,000  Level Jacksonville Center
02:07PM 30.8919 -85.9381 92° East 503 579 45,000  Level Jacksonville Center
02:08PM 30.8853 -85.7803 93° East 498 573 45,000  Level Jacksonville Center
02:09PM 30.8803 -85.6181 92° East 498 573 45,000  Level Jacksonville Center
02:10PM 30.8756 -85.4533 92° East 498 573 45,000  Level Jacksonville Center
02:11PM 30.8681 -85.2933 93° East 498 573 45,000  Level Jacksonville Center
02:12PM 30.8628 -85.1311 92° East 498 573 45,000  Level Jacksonville Center
02:13PM 30.8572 -84.9689 92° East 498 573 45,000  Level Jacksonville Center
02:14PM 30.8514 -84.8067 92° East 498 573 45,000 -480 Level Jacksonville Center
02:15PM 30.8411 -84.6467 94° East 498 573 44,100 -1,200 Descending Jacksonville Center
02:16PM 30.8328 -84.4772 93° East 498 573 42,600 -1,500 Descending Jacksonville Center
02:17PM 30.8097 -84.3147 99° East 510 587 41,100 -1,500 Descending Jacksonville Center
02:18PM 30.7592 -84.1617 111° Southeast 504 580 39,600 -1,560 Descending Jacksonville Center
02:19PM 30.6936 -84.0208 118° Southeast 497 572 38,000 -1,980 Descending Jacksonville Center
02:20PM 30.6281 -83.8800 118° Southeast 492 566 35,700 -2,280 Descending Jacksonville Center
02:21PM 30.5644 -83.7369 117° Southeast 492 566 33,500 -2,100 Descending Jacksonville Center
02:22PM 30.5108 -83.6136 117° Southeast 487 560 31,500 -2,100 Descending Jacksonville Center
02:23PM 30.4447 -83.4708 118° Southeast 492 566 29,300 -2,160 Descending Jacksonville Center
02:24PM 30.3828 -83.3308 117° Southeast 492 566 27,200 -1,200 Descending Jacksonville Center
02:25PM 30.3247 -83.2006 117° Southeast 482 555 27,000 -120 Descending Jacksonville Center
02:26PM 30.2558 -83.0586 119° Southeast 481 554 27,000 -120 Level Jacksonville Center
02:27PM 30.1914 -82.9167 118° Southeast 492 566 26,800 -600 Descending Jacksonville Center
02:28PM 30.1286 -82.7797 118° Southeast 487 560 25,900 -840 Descending Jacksonville Center
02:29PM 30.0594 -82.6381 119° Southeast 474 545 25,200 -480 Descending Jacksonville Center
02:30PM 30.0008 -82.5256 121° Southeast 463 533 25,000 -120 Descending Jacksonville Center
02:31PM 29.9067 -82.4300 139° Southeast 451 519 25,000  Level Jacksonville Center
02:32PM 29.7956 -82.3661 153° Southeast 436 502 25,000 -300 Level Jacksonville Center
02:33PM 29.6806 -82.3117 158° South 436 502 24,500 -1,200 Descending Jacksonville Center
02:34PM 29.5719 -82.2597 157° South 441 507 22,600 -1,860 Descending Jacksonville Center
02:35PM 29.4631 -82.2081 158° South 436 502 20,800 -1,860 Descending Jacksonville Center
02:36PM 29.3564 -82.1586 158° South 426 490 18,900 -1,680 Descending Jacksonville Center
02:37PM 29.2536 -82.1094 157° South 416 479 17,500 -1,680 Descending Jacksonville Center
02:38PM 29.1511 -82.0603 157° South 409 471 15,600 -1,800 Descending Jacksonville Center
02:39PM 29.0547 -82.0136 157° South 396 456 13,900 -1,680 Descending Jacksonville Center
02:40PM 28.9606 -81.9694 158° South 383 441 12,300 -1,500 Descending Jacksonville Center
02:41PM 28.8619 -81.9206 157° South 365 420 11,000 -1,140 Descending Jacksonville Center
02:42PM 28.7783 -81.8764 155° Southeast 351 404 10,100 -1,200 Descending Jacksonville Center
02:43PM 28.7167 -81.8500 159° South 334 384 8,900 -1,680 Descending Orlando TRACON
02:44PM 28.6167 -81.8500 180° South 277 319 7,200 -1,560 Descending Orlando TRACON
02:45PM 28.5500 -81.8333 168° South 250 288 5,800 -1,500 Descending Orlando TRACON
02:46PM 28.4833 -81.8333 180° South 265 305 4,300 -1,440 Descending Orlando TRACON
02:47PM 28.4167 -81.7833 147° Southeast 255 293 2,800 -1,200 Descending Orlando TRACON
02:48PM 28.3667 -81.7333 139° Southeast 242 278 2,000 -480 Descending Orlando TRACON
02:49PM 28.3333 -81.6833 127° Southeast 240 276 2,000  Level Orlando TRACON
02:50PM 28.3000 -81.6167 120° Southeast 210 242 2,000 -120 Level Orlando TRACON
02:51PM 28.2833 -81.5667 111° Southeast 176 203 1,800 -300 Descending Orlando TRACON
02:52PM 28.2667 -81.5167 111° Southeast 156 180 1,400 -600 Descending Orlando TRACON
02:53PM 28.2667 -81.4667 90° East 137 158 700 -720 Descending Orlando TRACON
02:55PM 28.2539 -81.4274 350° North  Level FlightAware Approximate
03:02PM 28.2833 -81.4333 350° North  Level FlightAware Approximate
03:03PM 28.2898 -81.4371 350° North  Level Estimated
03:04PM 28.2898 -81.4371 350° North  Level Estimated
03:05PM 28.2898 -81.4371 350° North  Level Estimated